Terminal Aerodrome Forecast
Issued by NWS Huntsville, AL

Home | Current Version | Previous Version | Text Only | Print | Product List | Glossary On
Versions: 1 2 3 4 5 6 7 8 9 10 11 12
000
FTUS44 KHUN 282339
TAFHSV
TAF
KHSV 282339Z 2900/2924 25006KT P6SM SCT100
     FM290200 35010G18KT P6SM BKN070 OVC090
     FM290500 35008KT P6SM SCT025 BKN040
     FM291400 33010G18KT P6SM SCT035 BKN050=

USA.gov is the U.S. government's official web portal to all federal, state and local government web resources and services.